createdAt,value
2019-05-14T00:01:36.477Z,8.10
2019-05-14T00:04:16.901Z,8.30
2019-05-14T00:06:56.743Z,8.30
2019-05-14T00:09:36.825Z,8.00
2019-05-14T00:12:17.251Z,8.00
2019-05-14T00:18:01.219Z,8.00
2019-05-14T00:20:42.053Z,8.10
2019-05-14T00:23:22.781Z,8.00
2019-05-14T00:26:02.673Z,8.20
2019-05-14T00:28:43.305Z,8.10
2019-05-14T00:31:23.702Z,8.10
2019-05-14T00:34:04.448Z,8.30
2019-05-14T00:36:48.034Z,8.30
2019-05-14T00:39:27.922Z,8.30
2019-05-14T00:42:08.382Z,8.10
2019-05-14T00:44:54.473Z,8.10
2019-05-14T00:47:31.083Z,7.90
2019-05-14T00:50:11.426Z,8.10
2019-05-14T00:52:51.778Z,8.10
2019-05-14T00:55:32.424Z,8.20
2019-05-14T00:58:02.347Z,8.20
2019-05-14T01:00:52.276Z,8.20
2019-05-14T01:03:32.534Z,8.10
2019-05-14T01:06:13.081Z,8.20
2019-05-14T01:08:54.415Z,8.50
2019-05-14T01:11:34.795Z,8.20
2019-05-14T01:14:16.075Z,8.20
2019-05-14T01:16:56.310Z,8.30
2019-05-14T01:19:39.073Z,8.30
2019-05-14T01:22:21.258Z,8.30
2019-05-14T01:25:01.656Z,8.40
2019-05-14T01:27:42.158Z,8.30
2019-05-14T01:30:22.419Z,8.30
2019-05-14T01:33:03.127Z,8.10
2019-05-14T01:35:46.699Z,8.30
2019-05-14T01:38:14.902Z,8.40
2019-05-14T01:40:43.286Z,8.30
2019-05-14T01:46:26.451Z,8.30
2019-05-14T01:49:06.606Z,8.40
2019-05-14T01:51:34.814Z,8.50
2019-05-14T01:54:23.239Z,8.30
2019-05-14T01:57:06.368Z,8.40
2019-05-14T01:59:51.716Z,8.30
2019-05-14T02:02:31.912Z,8.40
2019-05-14T02:05:12.631Z,8.30
2019-05-14T02:07:54.263Z,8.40
2019-05-14T02:10:34.249Z,8.40
2019-05-14T02:13:15.537Z,8.40
2019-05-14T02:15:55.265Z,8.30
2019-05-14T02:18:36.616Z,8.40
2019-05-14T02:21:16.773Z,8.30
2019-05-14T02:23:57.609Z,8.30
2019-05-14T02:26:38.110Z,8.00
2019-05-14T02:29:18.797Z,8.20
2019-05-14T02:31:50.165Z,7.90
2019-05-14T02:34:29.939Z,7.80
2019-05-14T02:37:14.987Z,7.80
2019-05-14T02:39:54.986Z,7.80
2019-05-14T02:42:34.760Z,7.70
2019-05-14T02:45:14.891Z,7.60
2019-05-14T02:47:54.923Z,7.60
2019-05-14T02:50:35.842Z,7.70
2019-05-14T02:53:19.532Z,7.50
2019-05-14T02:56:01.231Z,7.50
2019-05-14T02:58:41.118Z,7.40
2019-05-14T03:01:10.278Z,7.40
2019-05-14T03:03:59.833Z,7.30
2019-05-14T03:06:40.217Z,7.30
2019-05-14T03:09:20.628Z,7.20
2019-05-14T03:12:00.879Z,7.20
2019-05-14T03:14:40.466Z,7.40
2019-05-14T03:17:23.543Z,7.80
2019-05-14T03:26:14.766Z,8.00
2019-05-14T03:28:55.036Z,7.90
2019-05-14T03:31:35.734Z,7.50
2019-05-14T03:37:02.398Z,7.30
2019-05-14T03:39:45.264Z,6.90
2019-05-14T03:42:25.355Z,7.00
2019-05-14T03:45:08.442Z,6.80
2019-05-14T03:47:50.100Z,6.70
2019-05-14T03:50:19.037Z,6.70
2019-05-14T03:52:46.326Z,6.60
2019-05-14T03:58:13.213Z,6.50
2019-05-14T04:00:53.683Z,6.60
2019-05-14T04:03:33.695Z,6.20
2019-05-14T04:06:14.014Z,6.50
2019-05-14T04:08:54.040Z,6.50
2019-05-14T04:11:34.537Z,6.30
2019-05-14T04:14:14.639Z,6.50
2019-05-14T04:17:05.411Z,6.20
2019-05-14T04:19:39.500Z,6.20
2019-05-14T04:22:19.427Z,6.30
2019-05-14T04:25:10.964Z,6.20
2019-05-14T04:27:59.696Z,6.20
2019-05-14T04:30:40.224Z,6.20
2019-05-14T04:33:20.769Z,6.40
2019-05-14T04:36:00.826Z,6.40
2019-05-14T04:38:41.226Z,6.40
2019-05-14T04:41:21.086Z,6.40
2019-05-14T04:44:01.148Z,6.30
2019-05-14T04:46:40.995Z,6.60
2019-05-14T04:49:21.234Z,6.90
2019-05-14T05:01:03.301Z,7.00
2019-05-14T05:03:49.918Z,6.90
2019-05-14T05:06:14.017Z,7.00
2019-05-14T05:09:01.735Z,6.90
2019-05-14T05:11:41.884Z,7.20
2019-05-14T05:14:23.936Z,7.00
2019-05-14T05:17:04.285Z,7.20
2019-05-14T05:19:45.955Z,7.30
2019-05-14T05:22:13.987Z,7.20
2019-05-14T05:25:00.982Z,7.50
2019-05-14T05:27:40.685Z,7.50
2019-05-14T05:30:20.866Z,7.70
2019-05-14T05:33:00.726Z,7.80
2019-05-14T05:35:42.421Z,7.80
2019-05-14T05:38:22.161Z,7.90
2019-05-14T05:41:02.412Z,8.00
2019-05-14T05:43:42.469Z,8.10
2019-05-14T05:46:22.473Z,8.40
2019-05-14T05:49:02.708Z,8.50
2019-05-14T05:54:25.191Z,9.10
2019-05-14T05:57:05.241Z,9.50
2019-05-14T05:59:45.266Z,10.10
2019-05-14T06:02:29.130Z,10.30
2019-05-14T06:05:08.530Z,10.50
2019-05-14T06:07:48.759Z,10.90
2019-05-14T06:10:29.323Z,11.20
2019-05-14T06:13:09.133Z,11.60
2019-05-14T06:15:52.208Z,11.80
2019-05-14T06:18:34.401Z,12.20
2019-05-14T06:21:18.676Z,12.60
2019-05-14T06:23:58.210Z,12.80
2019-05-14T06:26:38.783Z,13.20
2019-05-14T06:29:18.989Z,13.50
2019-05-14T06:32:00.245Z,14.10
2019-05-14T06:34:40.641Z,14.60
2019-05-14T06:37:20.786Z,15.00
2019-05-14T06:40:00.887Z,15.40
2019-05-14T06:42:41.210Z,14.90
2019-05-14T06:45:21.238Z,14.70
2019-05-14T06:48:01.217Z,14.80
2019-05-14T06:50:41.370Z,15.20
2019-05-14T06:53:21.802Z,15.00
2019-05-14T06:56:02.102Z,15.30
2019-05-14T06:58:42.350Z,15.60
2019-05-14T07:01:22.442Z,15.90
2019-05-14T07:03:50.509Z,16.10
2019-05-14T07:06:39.136Z,16.50
2019-05-14T07:09:28.763Z,17.30
2019-05-14T07:12:09.094Z,17.30
2019-05-14T07:14:49.327Z,17.60
2019-05-14T07:17:29.747Z,17.80
2019-05-14T07:20:09.749Z,17.80
2019-05-14T07:22:50.179Z,18.00
2019-05-14T07:25:30.346Z,18.40
2019-05-14T07:28:10.422Z,19.00
2019-05-14T07:30:50.355Z,19.00
2019-05-14T07:33:18.399Z,18.70
2019-05-14T07:36:05.477Z,18.30
2019-05-14T07:38:48.681Z,18.20
2019-05-14T07:41:28.478Z,18.20
2019-05-14T07:44:09.363Z,18.50
2019-05-14T07:46:48.379Z,18.40
2019-05-14T07:49:30.008Z,18.20
2019-05-14T07:52:10.610Z,17.90
2019-05-14T07:54:50.942Z,17.80
2019-05-14T07:57:31.179Z,18.00
2019-05-14T08:00:11.278Z,18.50
2019-05-14T08:02:51.200Z,19.20
2019-05-14T08:05:31.535Z,19.30
2019-05-14T08:07:59.425Z,19.70
2019-05-14T08:10:48.613Z,19.60
2019-05-14T08:13:35.334Z,19.80
2019-05-14T08:16:15.345Z,20.30
2019-05-14T08:18:55.284Z,20.40
2019-05-14T08:21:35.381Z,20.60
2019-05-14T08:24:19.349Z,20.90
2019-05-14T08:26:57.967Z,21.00
2019-05-14T08:29:40.020Z,21.40
2019-05-14T08:32:19.895Z,21.60
2019-05-14T08:34:59.918Z,22.20
2019-05-14T08:37:40.125Z,22.40
2019-05-14T08:40:20.962Z,22.50
2019-05-14T08:42:49.091Z,22.40
2019-05-14T08:45:38.892Z,22.60
2019-05-14T08:48:09.167Z,22.80
2019-05-14T08:50:58.574Z,22.90
2019-05-14T08:53:38.872Z,23.00
2019-05-14T08:56:19.495Z,23.20
2019-05-14T08:58:59.544Z,23.60
2019-05-14T09:01:56.941Z,23.50
2019-05-14T09:10:31.869Z,23.80
2019-05-14T09:13:11.961Z,24.10
2019-05-14T09:15:51.938Z,24.10
2019-05-14T09:18:19.659Z,24.20
2019-05-14T09:21:08.703Z,24.30
2019-05-14T09:23:48.360Z,24.20
2019-05-14T09:26:28.630Z,24.30
2019-05-14T09:29:19.568Z,24.10
2019-05-14T09:31:50.798Z,24.10
2019-05-14T09:34:31.151Z,24.40
2019-05-14T09:37:11.050Z,24.10
2019-05-14T09:39:51.555Z,24.20
2019-05-14T09:42:19.737Z,24.20
2019-05-14T09:45:10.984Z,24.50
2019-05-14T09:47:50.790Z,24.90
2019-05-14T09:50:31.355Z,24.90
2019-05-14T09:53:11.702Z,24.30
2019-05-14T09:55:51.530Z,24.30
2019-05-14T09:58:31.725Z,24.30
2019-05-14T10:01:11.905Z,24.30
2019-05-14T10:03:52.090Z,24.10
2019-05-14T10:06:20.609Z,23.40
2019-05-14T10:09:08.777Z,22.90
2019-05-14T10:11:57.882Z,23.20
2019-05-14T10:14:39.396Z,23.20
2019-05-14T10:17:19.735Z,23.90
2019-05-14T10:20:00.451Z,23.90
2019-05-14T10:22:40.830Z,24.00
2019-05-14T10:25:09.142Z,24.00
2019-05-14T10:27:59.110Z,24.30
2019-05-14T10:30:39.368Z,24.50
2019-05-14T10:33:19.679Z,24.50
2019-05-14T10:35:59.547Z,24.50
2019-05-14T10:38:29.528Z,24.60
2019-05-14T10:41:18.394Z,24.90
2019-05-14T10:43:59.261Z,24.60
2019-05-14T10:46:39.681Z,24.80
2019-05-14T10:49:23.512Z,24.40
2019-05-14T10:52:01.520Z,24.30
2019-05-14T10:54:55.044Z,24.10
2019-05-14T10:57:25.053Z,24.30
2019-05-14T11:00:04.910Z,24.30
2019-05-14T11:02:45.013Z,24.10
2019-05-14T11:05:24.922Z,24.20
2019-05-14T11:08:05.106Z,24.40
2019-05-14T11:10:45.113Z,24.30
2019-05-14T11:13:25.352Z,24.20
2019-05-14T11:16:08.394Z,23.80
2019-05-14T11:18:49.694Z,23.50
2019-05-14T11:21:30.346Z,23.40
2019-05-14T11:24:10.934Z,23.30
2019-05-14T11:26:50.941Z,23.50
2019-05-14T11:29:31.142Z,23.50
2019-05-14T11:32:11.697Z,23.50
2019-05-14T11:34:51.615Z,23.70
2019-05-14T11:37:31.815Z,23.70
2019-05-14T11:40:11.962Z,23.60
2019-05-14T11:42:52.053Z,24.00
2019-05-14T11:45:33.370Z,24.30
2019-05-14T11:48:13.393Z,24.80
2019-05-14T11:50:53.388Z,24.80
2019-05-14T11:53:33.256Z,24.80
2019-05-14T11:56:13.323Z,24.50
2019-05-14T11:58:53.476Z,24.10
2019-05-14T12:01:34.065Z,23.80
2019-05-14T12:04:14.178Z,24.00
2019-05-14T12:09:53.229Z,24.40
2019-05-14T12:12:33.453Z,24.60
2019-05-14T12:15:14.495Z,24.90
2019-05-14T12:17:54.714Z,24.80
2019-05-14T12:20:34.810Z,24.30
2019-05-14T12:23:14.868Z,24.00
2019-05-14T12:25:54.859Z,23.80
2019-05-14T12:28:34.934Z,23.30
2019-05-14T12:33:54.266Z,22.70
2019-05-14T12:36:34.166Z,22.30
2019-05-14T12:39:14.112Z,22.10
2019-05-14T12:41:54.196Z,21.80
2019-05-14T12:44:22.116Z,21.40
2019-05-14T12:47:09.612Z,21.00
2019-05-14T12:49:38.866Z,20.80
2019-05-14T12:52:29.517Z,20.50
2019-05-14T12:55:09.698Z,20.00
2019-05-14T12:57:49.610Z,19.90
2019-05-14T13:00:29.657Z,19.90
2019-05-14T13:03:09.704Z,20.00
2019-05-14T13:05:50.117Z,20.00
2019-05-14T13:08:29.799Z,20.00
2019-05-14T13:11:10.011Z,20.00
2019-05-14T13:13:50.050Z,20.20
2019-05-14T13:16:30.423Z,20.40
2019-05-14T13:19:10.505Z,20.50
2019-05-14T13:22:08.654Z,20.30
2019-05-14T13:24:34.838Z,20.10
2019-05-14T13:27:15.034Z,20.00
2019-05-14T13:29:55.049Z,20.30
2019-05-14T13:32:22.669Z,20.20
2019-05-14T13:35:13.561Z,20.00
2019-05-14T13:37:51.864Z,20.00
2019-05-14T13:40:32.120Z,19.80
2019-05-14T13:43:14.387Z,19.80
2019-05-14T13:45:54.412Z,19.70
2019-05-14T13:48:22.022Z,19.40
2019-05-14T13:51:09.264Z,19.10
2019-05-14T13:53:58.990Z,19.00
2019-05-14T13:56:40.029Z,19.00
2019-05-14T13:59:20.138Z,18.80
2019-05-14T14:02:00.334Z,18.90
2019-05-14T14:04:40.287Z,19.20
2019-05-14T14:07:20.574Z,19.10
2019-05-14T14:10:00.968Z,18.90
2019-05-14T14:12:40.863Z,18.70
2019-05-14T14:15:21.304Z,18.90
2019-05-14T14:18:01.228Z,18.90
2019-05-14T14:20:41.662Z,18.80
2019-05-14T14:23:27.228Z,18.90
2019-05-14T14:26:04.759Z,18.60
2019-05-14T14:28:45.102Z,18.80
2019-05-14T14:31:25.270Z,18.70
2019-05-14T14:34:08.802Z,18.80
2019-05-14T14:36:49.940Z,18.90
2019-05-14T14:39:29.858Z,18.90
2019-05-14T14:42:09.934Z,18.70
2019-05-14T14:44:50.114Z,18.20
2019-05-14T14:47:30.105Z,18.50
2019-05-14T14:50:12.290Z,18.40
2019-05-14T14:52:52.230Z,18.40
2019-05-14T14:55:20.414Z,18.60
2019-05-14T14:58:11.064Z,18.40
2019-05-14T15:00:49.364Z,18.60
2019-05-14T15:03:29.855Z,18.60
2019-05-14T15:06:10.215Z,18.60
2019-05-14T15:08:52.587Z,18.60
2019-05-14T15:11:32.687Z,18.60
2019-05-14T15:14:12.731Z,18.50
2019-05-14T15:16:53.029Z,18.20
2019-05-14T15:19:33.316Z,18.20
2019-05-14T15:22:13.631Z,18.00
2019-05-14T15:24:53.498Z,18.00
2019-05-14T15:27:33.694Z,17.90
2019-05-14T15:30:13.761Z,17.80
2019-05-14T15:32:53.918Z,17.90
2019-05-14T15:35:34.082Z,18.00
2019-05-14T15:38:13.928Z,17.80
2019-05-14T15:40:54.236Z,17.60
2019-05-14T15:43:34.257Z,17.50
2019-05-14T15:46:14.714Z,17.80
2019-05-14T15:48:55.462Z,17.80
2019-05-14T15:51:35.512Z,17.70
2019-05-14T15:54:35.011Z,17.30
2019-05-14T15:56:58.760Z,17.20
2019-05-14T15:59:39.139Z,17.10
2019-05-14T16:02:20.257Z,17.20
2019-05-14T16:04:59.906Z,17.20
2019-05-14T16:07:40.174Z,17.30
2019-05-14T16:13:21.429Z,17.30
2019-05-14T16:16:01.605Z,17.20
2019-05-14T16:18:41.614Z,17.10
2019-05-14T16:21:21.390Z,16.80
2019-05-14T16:24:01.709Z,16.70
2019-05-14T16:26:41.901Z,16.20
2019-05-14T16:29:36.969Z,16.10
2019-05-14T16:38:03.424Z,15.70
2019-05-14T16:40:43.551Z,15.50
2019-05-14T16:43:24.289Z,15.40
2019-05-14T16:46:04.473Z,15.40
2019-05-14T16:48:49.029Z,15.10
2019-05-14T16:51:29.965Z,14.90
2019-05-14T16:54:10.705Z,14.60
2019-05-14T16:56:51.374Z,14.70
2019-05-14T16:59:31.029Z,14.60
2019-05-14T17:02:11.335Z,14.60
2019-05-14T17:04:51.402Z,14.50
2019-05-14T17:07:31.484Z,14.30
2019-05-14T17:10:12.598Z,14.10
2019-05-14T17:12:57.212Z,13.70
2019-05-14T17:15:35.277Z,13.40
2019-05-14T17:18:28.558Z,13.30
2019-05-14T17:21:09.187Z,13.30
2019-05-14T17:23:49.838Z,12.90
2019-05-14T17:26:30.062Z,13.00
2019-05-14T17:29:10.285Z,12.70
2019-05-14T17:31:52.458Z,12.50
2019-05-14T17:34:32.666Z,12.40
2019-05-14T17:37:12.821Z,12.60
2019-05-14T17:39:53.085Z,12.30
2019-05-14T17:42:33.367Z,12.50
2019-05-14T17:45:14.025Z,12.50
2019-05-14T17:47:54.526Z,12.40
2019-05-14T17:50:34.550Z,12.50
2019-05-14T17:53:14.927Z,12.10
2019-05-14T17:55:55.110Z,12.10
2019-05-14T17:58:35.466Z,12.00
2019-05-14T18:01:18.112Z,11.90
2019-05-14T18:03:59.275Z,11.70
2019-05-14T18:06:38.971Z,11.80
2019-05-14T18:12:19.082Z,11.60
2019-05-14T18:14:59.443Z,11.50
2019-05-14T18:17:39.746Z,11.30
2019-05-14T18:20:19.866Z,11.20
2019-05-14T18:23:00.173Z,11.10
2019-05-14T18:25:58.619Z,11.20
2019-05-14T18:28:23.632Z,11.00
2019-05-14T18:31:03.758Z,10.80
2019-05-14T18:33:31.659Z,11.00
2019-05-14T18:36:19.212Z,10.90
2019-05-14T18:39:00.341Z,10.90
2019-05-14T18:41:40.430Z,10.90
2019-05-14T18:44:20.746Z,10.90
2019-05-14T18:47:01.145Z,10.80
2019-05-14T18:49:41.531Z,10.90
2019-05-14T18:52:21.562Z,10.90
2019-05-14T18:55:01.758Z,10.80
2019-05-14T18:57:29.392Z,10.80
2019-05-14T19:00:18.423Z,10.70
2019-05-14T19:02:58.053Z,10.70
2019-05-14T19:05:38.330Z,10.70
2019-05-14T19:08:18.397Z,10.70
2019-05-14T19:10:59.326Z,10.50
2019-05-14T19:13:39.689Z,10.70
2019-05-14T19:16:21.859Z,10.70
2019-05-14T19:19:02.250Z,10.80
2019-05-14T19:21:41.913Z,10.80
2019-05-14T19:24:22.079Z,10.50
2019-05-14T19:27:03.249Z,10.60
2019-05-14T19:29:43.461Z,10.60
2019-05-14T19:32:23.458Z,10.60
2019-05-14T19:35:04.278Z,10.90
2019-05-14T19:37:44.477Z,10.30
2019-05-14T19:40:24.584Z,10.60
2019-05-14T19:43:04.675Z,10.50
2019-05-14T19:45:44.693Z,10.50
2019-05-14T19:48:24.905Z,10.70
2019-05-14T19:51:05.337Z,10.50
2019-05-14T19:53:45.514Z,10.60
2019-05-14T19:56:25.591Z,10.80
2019-05-14T19:59:05.806Z,10.60
2019-05-14T20:01:48.228Z,10.60
2019-05-14T20:04:29.231Z,10.50
2019-05-14T20:06:57.253Z,10.40
2019-05-14T20:09:51.813Z,10.50
2019-05-14T20:12:32.176Z,10.40
2019-05-14T20:15:12.321Z,10.30
2019-05-14T20:17:39.948Z,10.10
2019-05-14T20:20:28.807Z,10.10
2019-05-14T20:23:08.892Z,10.10
2019-05-14T20:25:48.889Z,10.00
2019-05-14T20:28:29.090Z,10.10
2019-05-14T20:31:10.691Z,9.90
2019-05-14T20:33:50.621Z,10.10
2019-05-14T20:36:30.653Z,9.90
2019-05-14T20:39:10.901Z,9.70
2019-05-14T20:44:50.163Z,9.70
2019-05-14T20:47:30.354Z,9.70
2019-05-14T20:50:10.728Z,9.60
2019-05-14T20:52:50.792Z,9.60
2019-05-14T20:55:30.696Z,9.60
2019-05-14T20:58:10.877Z,9.70
2019-05-14T21:00:50.963Z,9.60
2019-05-14T21:03:19.285Z,9.30
2019-05-14T21:06:06.368Z,9.40
2019-05-14T21:08:53.525Z,9.40
2019-05-14T21:11:33.078Z,9.50
2019-05-14T21:14:13.429Z,9.60
2019-05-14T21:16:53.471Z,9.60
2019-05-14T21:19:33.566Z,9.50
2019-05-14T21:22:13.702Z,9.50
2019-05-14T21:24:54.309Z,9.30
2019-05-14T21:27:43.909Z,9.20
2019-05-14T21:30:15.841Z,9.20
2019-05-14T21:35:55.043Z,9.00
2019-05-14T21:38:35.181Z,9.00
2019-05-14T21:41:15.445Z,8.90
2019-05-14T21:43:55.484Z,8.90
2019-05-14T21:46:35.587Z,8.90
2019-05-14T21:49:15.661Z,9.00
2019-05-14T21:51:58.032Z,9.20
2019-05-14T21:54:25.528Z,9.10
2019-05-14T21:57:12.565Z,9.00
2019-05-14T21:59:59.602Z,8.90
2019-05-14T22:02:38.282Z,8.90
2019-05-14T22:05:25.517Z,9.00
2019-05-14T22:08:05.133Z,8.70
2019-05-14T22:10:45.191Z,8.80
2019-05-14T22:13:25.209Z,9.10
2019-05-14T22:16:08.211Z,9.10
2019-05-14T22:18:48.381Z,8.90
2019-05-14T22:21:28.947Z,9.00
2019-05-14T22:24:08.763Z,8.70
2019-05-14T22:26:38.827Z,8.60
2019-05-14T22:29:08.360Z,8.50
2019-05-14T22:31:38.519Z,8.50
2019-05-14T22:34:05.118Z,8.50
2019-05-14T22:36:32.762Z,8.50
2019-05-14T22:39:00.363Z,8.50
2019-05-14T22:41:29.137Z,8.50
2019-05-14T22:43:59.345Z,8.50
2019-05-14T22:46:26.378Z,8.50
2019-05-14T22:48:54.159Z,8.50
2019-05-14T22:51:21.800Z,8.50
2019-05-14T22:53:49.550Z,8.50
2019-05-14T22:56:17.218Z,8.50
2019-05-14T22:58:44.858Z,8.60
2019-05-14T23:01:15.114Z,8.60
2019-05-14T23:03:41.920Z,8.60
2019-05-14T23:06:09.492Z,8.60
2019-05-14T23:08:39.088Z,8.60
2019-05-14T23:11:08.690Z,8.60
2019-05-14T23:13:36.051Z,8.60
2019-05-14T23:16:03.646Z,8.50
2019-05-14T23:18:31.303Z,8.50
2019-05-14T23:20:59.331Z,8.60
2019-05-14T23:23:28.169Z,8.60
2019-05-14T23:25:55.906Z,8.50
2019-05-14T23:28:24.639Z,8.30
2019-05-14T23:31:11.715Z,7.90
2019-05-14T23:33:51.693Z,7.80
2019-05-14T23:36:31.701Z,7.60
2019-05-14T23:39:12.240Z,7.50
2019-05-14T23:41:51.982Z,7.50
2019-05-14T23:44:32.098Z,7.30
2019-05-14T23:47:12.028Z,7.60
2019-05-14T23:49:52.186Z,7.10
2019-05-14T23:52:32.341Z,7.20
2019-05-14T23:55:12.622Z,7.40
2019-05-14T23:57:52.882Z,7.30
